createdAt,value
2022-08-05T00:00:35.345Z,54.91
2022-08-05T00:02:52.140Z,54.85
2022-08-05T00:04:55.798Z,54.68
2022-08-05T00:06:58.396Z,54.58
2022-08-05T00:09:01.922Z,54.60
2022-08-05T00:11:20.652Z,54.56
2022-08-05T00:13:38.223Z,54.60
2022-08-05T00:15:57.958Z,54.73
2022-08-05T00:18:02.502Z,54.71
2022-08-05T00:20:05.499Z,54.54
2022-08-05T00:22:11.235Z,54.49
2022-08-05T00:24:15.998Z,54.75
2022-08-05T00:26:18.520Z,54.77
2022-08-05T00:28:21.178Z,54.90
2022-08-05T00:30:32.245Z,55.02
2022-08-05T00:32:34.802Z,55.04
2022-08-05T00:34:54.216Z,55.26
2022-08-05T00:37:10.727Z,55.18
2022-08-05T00:39:15.712Z,55.46
2022-08-05T00:41:51.538Z,55.50
2022-08-05T00:43:54.457Z,55.64
2022-08-05T00:45:56.795Z,55.66
2022-08-05T00:48:05.623Z,55.77
2022-08-05T00:50:09.807Z,55.77
2022-08-05T00:52:12.031Z,55.94
2022-08-05T00:54:14.486Z,56.24
2022-08-05T00:56:22.889Z,56.42
2022-08-05T00:58:27.259Z,56.47
2022-08-05T01:00:31.456Z,56.66
2022-08-05T01:02:33.535Z,56.69
2022-08-05T01:04:36.671Z,56.93
2022-08-05T01:06:47.889Z,57.31
2022-08-05T01:08:51.173Z,57.30
2022-08-05T01:11:13.649Z,57.63
2022-08-05T01:13:27.378Z,57.64
2022-08-05T01:15:57.158Z,57.80
2022-08-05T01:18:25.594Z,58.14
2022-08-05T01:21:00.628Z,58.43
2022-08-05T01:23:36.918Z,58.48
2022-08-05T01:26:13.254Z,58.65
2022-08-05T01:28:18.324Z,58.44
2022-08-05T01:30:34.707Z,58.50
2022-08-05T01:32:43.968Z,58.45
2022-08-05T01:35:10.675Z,58.36
2022-08-05T01:37:25.229Z,58.44
2022-08-05T01:39:45.711Z,58.36
2022-08-05T01:41:50.747Z,58.15
2022-08-05T01:43:57.134Z,58.16
2022-08-05T01:46:07.297Z,58.19
2022-08-05T01:48:20.020Z,58.18
2022-08-05T01:50:39.267Z,58.24
2022-08-05T01:52:49.996Z,58.41
2022-08-05T01:54:58.036Z,58.18
2022-08-05T01:58:13.083Z,58.30
2022-08-05T01:59:31.087Z,58.15
2022-08-05T02:01:40.297Z,58.53
2022-08-05T02:03:46.778Z,58.72
2022-08-05T02:05:49.894Z,58.50
2022-08-05T02:08:02.131Z,58.73
2022-08-05T02:10:07.968Z,58.55
2022-08-05T02:12:39.351Z,58.83
2022-08-05T02:14:53.811Z,59.01
2022-08-05T02:17:07.992Z,58.95
2022-08-05T02:19:34.223Z,58.68
2022-08-05T02:21:46.813Z,58.77
2022-08-05T02:23:59.498Z,58.88
2022-08-05T02:26:07.329Z,59.37
2022-08-05T02:28:14.927Z,59.46
2022-08-05T02:30:17.622Z,59.60
2022-08-05T02:32:29.202Z,59.86
2022-08-05T02:34:35.322Z,59.84
2022-08-05T02:36:44.090Z,60.18
2022-08-05T02:38:53.636Z,60.16
2022-08-05T02:40:58.036Z,60.63
2022-08-05T02:43:01.348Z,60.46
2022-08-05T02:45:05.896Z,60.83
2022-08-05T02:47:11.234Z,61.04
2022-08-05T02:49:15.887Z,61.22
2022-08-05T02:51:19.297Z,60.96
2022-08-05T02:53:35.882Z,61.17
2022-08-05T02:55:53.958Z,61.15
2022-08-05T02:58:11.772Z,61.13
2022-08-05T03:00:15.614Z,61.44
2022-08-05T03:02:24.499Z,61.39
2022-08-05T03:04:30.988Z,61.57
2022-08-05T03:06:56.735Z,61.44
2022-08-05T03:08:57.161Z,61.56
2022-08-05T03:11:56.890Z,61.80
2022-08-05T03:13:27.770Z,61.52
2022-08-05T03:15:49.751Z,61.58
2022-08-05T03:17:55.528Z,61.43
2022-08-05T03:19:59.611Z,61.21
2022-08-05T03:22:05.157Z,61.44
2022-08-05T03:24:29.447Z,61.35
2022-08-05T03:26:33.017Z,61.65
2022-08-05T03:28:35.356Z,61.49
2022-08-05T03:30:38.281Z,61.62
2022-08-05T03:32:43.964Z,61.65
2022-08-05T03:34:50.461Z,61.75
2022-08-05T03:36:53.450Z,61.75
2022-08-05T03:38:58.183Z,62.03
2022-08-05T03:41:00.931Z,62.06
2022-08-05T03:43:58.376Z,62.16
2022-08-05T03:45:57.754Z,62.09
2022-08-05T03:47:57.032Z,62.04
2022-08-05T03:50:00.663Z,62.03
2022-08-05T03:52:38.008Z,62.07
2022-08-05T03:55:53.615Z,62.19
2022-08-05T03:57:00.024Z,61.89
2022-08-05T03:59:10.055Z,61.85
2022-08-05T04:01:14.895Z,61.79
2022-08-05T04:03:28.324Z,61.73
2022-08-05T04:05:34.780Z,61.71
2022-08-05T04:07:57.510Z,61.42
2022-08-05T04:10:03.012Z,61.21
2022-08-05T04:12:23.449Z,60.94
2022-08-05T04:14:29.936Z,60.55
2022-08-05T04:16:34.597Z,59.84
2022-08-05T04:18:40.661Z,59.47
2022-08-05T04:20:43.809Z,58.42
2022-08-05T04:22:49.291Z,57.40
2022-08-05T04:24:53.143Z,57.11
2022-08-05T04:26:55.821Z,56.32
2022-08-05T04:29:07.427Z,55.83
2022-08-05T04:31:10.641Z,55.05
2022-08-05T04:33:15.822Z,53.74
2022-08-05T04:35:23.776Z,52.90
2022-08-05T04:38:02.513Z,52.46
2022-08-05T04:39:52.760Z,51.86
2022-08-05T04:41:55.533Z,51.86
2022-08-05T04:43:58.306Z,50.80
2022-08-05T04:46:02.286Z,49.71
2022-08-05T04:48:16.331Z,50.32
2022-08-05T04:50:37.413Z,49.28
2022-08-05T04:52:44.275Z,48.85
2022-08-05T04:54:47.150Z,48.31
2022-08-05T04:56:57.493Z,47.50
2022-08-05T04:59:22.192Z,46.80
2022-08-05T05:02:06.090Z,45.81
2022-08-05T05:03:49.210Z,45.54
2022-08-05T05:06:39.187Z,45.09
2022-08-05T05:08:30.191Z,44.49
2022-08-05T05:10:55.928Z,44.29
2022-08-05T05:12:59.537Z,43.89
2022-08-05T05:15:10.641Z,43.82
2022-08-05T05:17:13.489Z,43.57
2022-08-05T05:19:19.317Z,42.87
2022-08-05T05:21:27.091Z,42.30
2022-08-05T05:24:01.630Z,42.75
2022-08-05T05:26:07.846Z,42.27
2022-08-05T05:28:17.408Z,42.39
2022-08-05T05:30:29.063Z,42.21
2022-08-05T05:32:33.991Z,42.39
2022-08-05T05:34:37.814Z,42.55
2022-08-05T05:36:40.302Z,41.98
2022-08-05T05:38:45.468Z,41.33
2022-08-05T05:40:51.868Z,40.14
2022-08-05T05:42:54.721Z,39.42
2022-08-05T05:44:59.840Z,39.71
2022-08-05T05:47:22.208Z,39.70
2022-08-05T05:49:34.921Z,39.07
2022-08-05T05:51:49.695Z,38.71
2022-08-05T05:54:02.536Z,37.94
2022-08-05T05:56:13.368Z,37.55
2022-08-05T06:00:54.520Z,37.55
2022-08-05T06:02:56.567Z,36.93
2022-08-05T06:05:31.944Z,36.34
2022-08-05T06:08:07.240Z,35.41
2022-08-05T06:10:12.431Z,34.07
2022-08-05T06:12:21.556Z,34.01
2022-08-05T06:14:28.971Z,34.18
2022-08-05T06:16:37.133Z,34.74
2022-08-05T06:20:57.376Z,35.08
2022-08-05T06:23:02.113Z,35.22
2022-08-05T06:25:25.118Z,34.43
2022-08-05T06:28:10.718Z,35.36
2022-08-05T06:30:20.129Z,35.09
2022-08-05T06:32:28.708Z,35.45
2022-08-05T06:34:36.505Z,35.30
2022-08-05T06:36:57.187Z,34.59
2022-08-05T06:39:06.899Z,35.83
2022-08-05T06:41:12.648Z,36.17
2022-08-05T06:43:51.458Z,36.37
2022-08-05T06:45:44.769Z,36.75
2022-08-05T06:48:36.760Z,37.09
2022-08-05T06:50:29.350Z,37.36
2022-08-05T06:52:37.258Z,37.35
2022-08-05T06:54:42.204Z,37.28
2022-08-05T06:56:54.813Z,37.43
2022-08-05T06:59:12.696Z,37.18
2022-08-05T07:03:52.065Z,38.28
2022-08-05T07:05:55.296Z,38.59
2022-08-05T07:08:03.584Z,39.05
2022-08-05T07:10:14.889Z,40.05
2022-08-05T07:12:20.016Z,40.34
2022-08-05T07:14:34.444Z,39.86
2022-08-05T07:17:56.342Z,39.81
2022-08-05T07:18:59.383Z,40.26
2022-08-05T07:21:06.746Z,40.86
2022-08-05T07:23:26.301Z,40.89
2022-08-05T07:25:55.273Z,40.27
2022-08-05T07:28:02.740Z,40.54
2022-08-05T07:30:28.171Z,40.33
2022-08-05T07:32:40.764Z,40.41
2022-08-05T07:34:48.480Z,39.95
2022-08-05T07:37:01.374Z,40.50
2022-08-05T07:39:24.831Z,40.71
2022-08-05T07:42:12.940Z,40.38
2022-08-05T07:44:14.359Z,40.50
2022-08-05T07:46:25.240Z,40.22
2022-08-05T07:49:03.505Z,39.88
2022-08-05T07:50:53.487Z,40.12
2022-08-05T07:53:00.986Z,39.73
2022-08-05T07:55:16.093Z,39.58
2022-08-05T07:57:51.284Z,40.78
2022-08-05T07:59:57.669Z,40.06
2022-08-05T08:02:05.945Z,40.18
2022-08-05T08:04:37.683Z,40.75
2022-08-05T08:06:43.737Z,40.26
2022-08-05T08:08:48.299Z,40.89
2022-08-05T08:10:59.500Z,40.58
2022-08-05T08:13:06.357Z,40.76
2022-08-05T08:15:15.804Z,40.26
2022-08-05T08:17:19.174Z,40.99
2022-08-05T08:20:22.308Z,40.48
2022-08-05T08:21:47.461Z,39.87
2022-08-05T08:24:02.215Z,39.77
2022-08-05T08:26:07.654Z,39.30
2022-08-05T08:28:18.319Z,38.74
2022-08-05T08:30:40.719Z,38.13
2022-08-05T08:32:50.674Z,38.58
2022-08-05T08:34:59.013Z,38.14
2022-08-05T08:37:03.326Z,37.39
2022-08-05T08:39:14.971Z,36.88
2022-08-05T08:41:20.372Z,37.29
2022-08-05T08:45:16.431Z,36.75
2022-08-05T08:45:58.783Z,36.50
2022-08-05T08:48:10.519Z,36.73
2022-08-05T08:50:33.018Z,35.84
2022-08-05T08:53:02.203Z,35.16
2022-08-05T08:55:19.623Z,35.20
2022-08-05T08:57:58.399Z,35.44
2022-08-05T09:00:01.452Z,35.75
2022-08-05T09:02:08.708Z,34.14
2022-08-05T09:04:12.234Z,34.03
2022-08-05T09:06:21.088Z,34.63
2022-08-05T09:08:30.114Z,34.64
2022-08-05T09:10:32.953Z,35.21
2022-08-05T09:12:36.454Z,33.78
2022-08-05T09:14:58.582Z,34.35
2022-08-05T09:17:41.326Z,33.39
2022-08-05T09:20:01.934Z,34.01
2022-08-05T09:22:24.961Z,33.05
2022-08-05T09:24:39.122Z,31.63
2022-08-05T09:26:43.707Z,31.56
2022-08-05T09:28:48.837Z,31.88
2022-08-05T09:32:40.811Z,32.29
2022-08-05T09:34:07.186Z,30.92
2022-08-05T09:39:45.521Z,31.38
2022-08-05T09:42:04.918Z,31.00
2022-08-05T09:44:44.012Z,31.62
2022-08-05T09:46:51.806Z,31.41
2022-08-05T09:49:07.368Z,31.97
2022-08-05T09:51:40.068Z,30.55
2022-08-05T09:53:59.168Z,30.96
2022-08-05T09:56:28.310Z,31.15
2022-08-05T09:58:38.200Z,30.56
2022-08-05T10:01:13.744Z,30.28
2022-08-05T10:03:23.482Z,29.69
2022-08-05T10:05:46.071Z,29.69
2022-08-05T10:08:35.080Z,28.95
2022-08-05T10:10:54.518Z,28.83
2022-08-05T10:13:03.152Z,28.77
2022-08-05T10:18:22.888Z,29.07
2022-08-05T10:20:38.884Z,28.97
2022-08-05T10:22:50.878Z,28.63
2022-08-05T10:25:03.844Z,27.84
2022-08-05T10:27:12.912Z,27.36
2022-08-05T10:30:40.969Z,28.29
2022-08-05T10:32:54.147Z,28.29
2022-08-05T10:34:25.863Z,26.63
2022-08-05T10:36:48.789Z,27.35
2022-08-05T10:39:24.380Z,26.55
2022-08-05T10:42:02.511Z,26.37
2022-08-05T10:44:27.430Z,25.83
2022-08-05T10:50:33.237Z,26.03
2022-08-05T10:52:51.693Z,25.11
2022-08-05T10:57:39.372Z,24.53
2022-08-05T11:05:41.492Z,23.88
2022-08-05T11:08:33.702Z,24.15
2022-08-05T11:14:03.353Z,23.38
2022-08-05T11:16:33.736Z,23.46
2022-08-05T11:20:17.376Z,24.62
2022-08-05T11:23:01.974Z,24.16
2022-08-05T11:26:05.273Z,24.25
2022-08-05T11:30:59.791Z,23.87
2022-08-05T11:33:44.053Z,24.03
2022-08-05T11:36:07.731Z,23.30
2022-08-05T11:38:30.134Z,23.62
2022-08-05T11:41:34.795Z,24.24
2022-08-05T11:44:52.946Z,23.91
2022-08-05T11:47:09.197Z,23.68
2022-08-05T11:49:36.620Z,24.52
2022-08-05T11:51:55.024Z,23.57
2022-08-05T11:54:02.115Z,24.49
2022-08-05T11:56:05.169Z,24.80
2022-08-05T11:58:32.076Z,24.36
2022-08-05T12:00:44.359Z,24.28
2022-08-05T12:02:53.593Z,24.10
2022-08-05T12:05:06.884Z,24.66
2022-08-05T12:08:08.457Z,25.01
2022-08-05T12:10:38.638Z,23.96
2022-08-05T12:12:59.191Z,24.06
2022-08-05T12:15:04.878Z,24.02
2022-08-05T12:18:00.573Z,23.53
2022-08-05T12:20:27.152Z,23.89
2022-08-05T12:22:36.479Z,23.75
2022-08-05T12:25:14.213Z,23.89
2022-08-05T12:30:15.709Z,23.73
2022-08-05T12:32:52.996Z,24.12
2022-08-05T12:37:30.025Z,24.25
2022-08-05T12:39:44.108Z,24.89
2022-08-05T12:42:14.427Z,24.75
2022-08-05T12:44:37.265Z,24.15
2022-08-05T12:47:18.613Z,24.04
2022-08-05T12:52:32.323Z,23.90
2022-08-05T12:55:47.273Z,24.23
2022-08-05T12:59:08.050Z,24.29
2022-08-05T13:02:01.084Z,24.29
2022-08-05T13:04:54.667Z,23.66
2022-08-05T13:07:17.283Z,24.13
2022-08-05T13:09:28.654Z,24.28
2022-08-05T13:12:01.255Z,24.04
2022-08-05T13:24:36.182Z,23.83
2022-08-05T13:27:03.741Z,23.95
2022-08-05T13:29:06.566Z,24.36
2022-08-05T13:31:13.943Z,23.47
2022-08-05T13:34:22.358Z,23.59
2022-08-05T13:39:24.541Z,24.16
2022-08-05T13:41:37.531Z,23.91
2022-08-05T13:43:56.425Z,23.63
2022-08-05T13:46:14.126Z,23.51
2022-08-05T13:55:09.667Z,24.04
2022-08-05T14:09:08.455Z,23.70
2022-08-05T14:12:03.908Z,23.11
2022-08-05T14:14:08.814Z,23.33
2022-08-05T14:20:27.595Z,23.35
2022-08-05T14:23:11.195Z,22.96
2022-08-05T14:29:16.705Z,23.78
2022-08-05T14:32:13.156Z,23.35
2022-08-05T14:40:35.532Z,22.60
2022-08-05T15:32:55.706Z,23.80
2022-08-05T15:35:09.784Z,23.84
2022-08-05T16:30:01.639Z,24.15
2022-08-05T17:00:25.958Z,25.28
2022-08-05T17:03:19.529Z,25.76
2022-08-05T17:12:51.928Z,28.33
2022-08-05T17:26:51.333Z,28.67
2022-08-05T17:36:33.568Z,30.86
2022-08-05T17:56:33.775Z,31.10
2022-08-05T17:58:43.719Z,31.18
2022-08-05T18:13:26.080Z,32.46
2022-08-05T18:16:03.458Z,31.48
2022-08-05T18:18:30.779Z,30.95
2022-08-05T18:20:50.378Z,30.72
2022-08-05T18:23:40.709Z,30.78
2022-08-05T18:26:13.365Z,31.13
2022-08-05T18:28:21.907Z,31.22
2022-08-05T18:30:26.209Z,31.82
2022-08-05T18:33:00.279Z,32.57
2022-08-05T18:35:05.281Z,33.35
2022-08-05T18:37:12.480Z,33.24
2022-08-05T18:39:42.423Z,33.46
2022-08-05T18:41:59.712Z,33.29
2022-08-05T18:44:06.259Z,33.21
2022-08-05T18:46:09.712Z,33.04
2022-08-05T18:48:30.264Z,33.30
2022-08-05T18:50:45.016Z,34.34
2022-08-05T18:52:55.957Z,34.68
2022-08-05T18:54:59.363Z,34.85
2022-08-05T18:57:04.117Z,35.51
2022-08-05T18:59:42.966Z,35.06
2022-08-05T19:01:57.046Z,34.87
2022-08-05T19:04:12.588Z,37.25
2022-08-05T19:06:20.089Z,37.82
2022-08-05T19:09:11.058Z,38.42
2022-08-05T19:11:28.628Z,39.72
2022-08-05T19:13:40.895Z,40.64
2022-08-05T19:15:57.870Z,40.55
2022-08-05T19:18:10.436Z,40.90
2022-08-05T19:20:15.713Z,41.04
2022-08-05T19:22:27.559Z,42.00
2022-08-05T19:24:34.720Z,41.58
2022-08-05T19:26:54.673Z,42.43
2022-08-05T19:28:58.163Z,42.71
2022-08-05T19:31:04.862Z,43.00
2022-08-05T19:33:16.902Z,43.51
2022-08-05T19:35:56.838Z,43.62
2022-08-05T19:38:06.711Z,43.61
2022-08-05T19:40:15.074Z,43.79
2022-08-05T19:42:35.391Z,44.15
2022-08-05T19:44:44.732Z,44.69
2022-08-05T19:46:52.230Z,44.52
2022-08-05T19:48:54.411Z,44.90
2022-08-05T19:51:05.613Z,44.73
2022-08-05T19:53:10.846Z,45.04
2022-08-05T19:56:15.061Z,44.99
2022-08-05T19:57:57.227Z,44.89
2022-08-05T20:00:06.584Z,45.45
2022-08-05T20:02:19.950Z,45.29
2022-08-05T20:04:49.551Z,45.36
2022-08-05T20:07:47.363Z,45.62
2022-08-05T20:10:11.773Z,45.73
2022-08-05T20:12:39.042Z,46.01
2022-08-05T20:15:13.579Z,46.12
2022-08-05T20:17:24.774Z,46.09
2022-08-05T20:19:36.427Z,46.03
2022-08-05T20:21:54.558Z,46.22
2022-08-05T20:24:00.258Z,46.21
2022-08-05T20:26:32.480Z,46.41
2022-08-05T20:32:18.488Z,46.26
2022-08-05T20:38:08.310Z,46.42
2022-08-05T20:40:34.724Z,46.70
2022-08-05T20:42:47.038Z,46.27
2022-08-05T20:44:53.022Z,46.48
2022-08-05T20:47:07.615Z,46.32
2022-08-05T20:49:11.396Z,46.63
2022-08-05T20:51:15.072Z,46.72
2022-08-05T20:53:36.531Z,46.67
2022-08-05T20:55:56.816Z,46.85
2022-08-05T20:58:15.878Z,46.94
2022-08-05T21:01:04.789Z,47.13
2022-08-05T21:03:16.808Z,47.13
2022-08-05T21:05:24.182Z,47.16
2022-08-05T21:07:26.324Z,47.14
2022-08-05T21:09:53.288Z,47.34
2022-08-05T21:12:09.457Z,47.31
2022-08-05T21:17:05.489Z,47.66
2022-08-05T21:21:50.903Z,48.00
2022-08-05T21:24:26.197Z,47.78
2022-08-05T21:26:39.514Z,47.88
2022-08-05T21:28:55.599Z,48.19
2022-08-05T21:31:40.881Z,48.18
2022-08-05T21:33:47.810Z,48.73
2022-08-05T21:35:58.968Z,48.72
2022-08-05T21:38:10.039Z,48.63
2022-08-05T21:40:38.159Z,48.98
2022-08-05T21:42:59.264Z,48.84
2022-08-05T21:45:10.797Z,49.46
2022-08-05T21:47:17.513Z,49.45
2022-08-05T21:54:35.538Z,49.88
2022-08-05T22:00:01.653Z,50.11
2022-08-05T22:02:03.087Z,49.93
2022-08-05T22:04:07.840Z,50.21
2022-08-05T22:06:22.327Z,50.30
2022-08-05T22:08:29.347Z,50.25
2022-08-05T22:10:39.235Z,50.25
2022-08-05T22:12:50.608Z,50.16
2022-08-05T22:14:54.094Z,50.37
2022-08-05T22:17:04.932Z,50.54
2022-08-05T22:19:55.929Z,50.87
2022-08-05T22:21:33.737Z,50.79
2022-08-05T22:24:02.402Z,51.34
2022-08-05T22:26:09.889Z,51.91
2022-08-05T22:30:44.197Z,52.35
2022-08-05T22:35:47.748Z,52.98
2022-08-05T22:37:58.753Z,52.88
2022-08-05T22:40:07.815Z,52.99
2022-08-05T22:42:15.286Z,53.74
2022-08-05T22:44:25.147Z,54.03
2022-08-05T22:46:29.274Z,54.22
2022-08-05T22:48:34.434Z,54.30
2022-08-05T22:50:37.712Z,55.46
2022-08-05T22:52:51.279Z,56.37
2022-08-05T22:54:55.076Z,56.76
2022-08-05T22:56:57.572Z,58.36
2022-08-05T22:59:04.086Z,58.85
2022-08-05T23:01:24.941Z,60.07
2022-08-05T23:03:57.609Z,60.55
2022-08-05T23:06:01.713Z,61.28
2022-08-05T23:08:04.972Z,61.93
2022-08-05T23:10:08.375Z,61.76
2022-08-05T23:12:11.272Z,62.69
2022-08-05T23:14:22.588Z,63.16
2022-08-05T23:16:39.052Z,63.46
2022-08-05T23:18:46.544Z,64.18
2022-08-05T23:20:59.943Z,63.92
2022-08-05T23:23:05.713Z,64.53
2022-08-05T23:25:16.917Z,64.41
2022-08-05T23:27:22.751Z,64.54
2022-08-05T23:29:27.410Z,64.77
2022-08-05T23:31:37.273Z,64.93
2022-08-05T23:34:04.794Z,65.19
2022-08-05T23:36:02.993Z,65.49
2022-08-05T23:38:07.202Z,65.61
2022-08-05T23:40:15.116Z,65.72
2022-08-05T23:42:29.173Z,66.20
2022-08-05T23:44:32.052Z,66.16
2022-08-05T23:46:34.770Z,65.88
2022-08-05T23:48:39.712Z,66.09
2022-08-05T23:50:44.652Z,66.13
2022-08-05T23:52:53.271Z,66.21
2022-08-05T23:55:08.847Z,66.28
2022-08-05T23:57:11.552Z,66.10
2022-08-05T23:59:14.071Z,66.21
